Time;durP1;ratioP1;P1;durP2;ratioP2;P2;SDS_P1;SDS_P2;PMS_P1;PMS_P2;Temp;Humidity;BMP_temperature;BMP_pressure;BME280_temperature;BME280_humidity;BME280_pressure;Samples;Min_cycle;Max_cycle;Signal;HPM_P1;HPM_P2
2023/04/01 00:01:52;;;;;;;3.33;2.13;;;;;;;9.97;100.00;98137.66;5038334;28;20988;-67
2023/04/01 00:04:20;;;;;;;2.77;2.13;;;;;;;10.16;100.00;98130.88;5042313;28;20482;-66
2023/04/01 00:06:47;;;;;;;2.83;1.80;;;;;;;10.14;100.00;98130.25;5033381;28;20502;-66
2023/04/01 00:09:14;;;;;;;3.57;2.10;;;;;;;9.85;100.00;98147.16;5036526;28;20447;-67
2023/04/01 00:11:41;;;;;;;2.50;1.70;;;;;;;9.95;100.00;98137.84;5038018;28;20485;-67
2023/04/01 00:14:08;;;;;;;2.40;1.67;;;;;;;9.79;100.00;98136.22;5037663;28;20535;-67
2023/04/01 00:16:34;;;;;;;2.60;1.67;;;;;;;9.69;100.00;98129.53;5045536;28;20549;-67
2023/04/01 00:19:01;;;;;;;2.20;1.37;;;;;;;9.78;100.00;98141.75;5046033;28;20460;-67
2023/04/01 00:21:29;;;;;;;2.67;1.40;;;;;;;9.95;100.00;98134.34;5040196;28;20505;-67
2023/04/01 00:23:56;;;;;;;2.57;1.23;;;;;;;10.22;100.00;98132.75;5052582;28;20552;-67
2023/04/01 00:26:22;;;;;;;6.10;1.53;;;;;;;10.05;100.00;98142.88;5039856;28;20509;-68
2023/04/01 00:28:49;;;;;;;2.50;1.30;;;;;;;10.06;100.00;98131.16;5043456;28;20468;-67
2023/04/01 00:31:16;;;;;;;2.07;1.33;;;;;;;10.00;100.00;98134.63;5038814;28;20516;-67
2023/04/01 00:33:43;;;;;;;1.33;1.10;;;;;;;10.22;100.00;98135.44;5035489;28;20458;-66
2023/04/01 00:36:11;;;;;;;2.80;1.10;;;;;;;9.96;100.00;98144.00;5041650;28;20558;-66
2023/04/01 00:38:39;;;;;;;3.77;1.00;;;;;;;10.01;100.00;98128.25;5036524;28;20542;-66
2023/04/01 00:41:06;;;;;;;2.30;1.30;;;;;;;10.05;100.00;98126.88;5044297;28;20510;-67
2023/04/01 00:43:33;;;;;;;2.40;1.27;;;;;;;10.02;100.00;98118.41;5029835;28;20455;-66
2023/04/01 00:46:00;;;;;;;4.57;1.30;;;;;;;9.97;100.00;98133.13;5036325;28;20478;-67
2023/04/01 00:48:30;;;;;;;2.37;0.83;;;;;;;9.83;100.00;98130.53;5031308;28;20481;-66
2023/04/01 00:50:59;;;;;;;1.73;0.90;;;;;;;9.95;100.00;98127.16;5037829;28;20501;-66
2023/04/01 00:53:27;;;;;;;5.33;1.30;;;;;;;9.58;100.00;98133.50;5035121;28;20449;-66
2023/04/01 00:55:59;;;;;;;2.33;0.93;;;;;;;9.51;100.00;98128.09;5035859;28;20486;-66
2023/04/01 00:58:28;;;;;;;2.93;1.17;;;;;;;9.56;100.00;98127.53;5041070;28;20771;-67
2023/04/01 01:00:55;;;;;;;5.50;1.47;;;;;;;9.53;100.00;98128.72;5037634;28;21021;-67
2023/04/01 01:03:22;;;;;;;3.00;1.33;;;;;;;9.55;100.00;98126.69;5045850;28;20469;-67
2023/04/01 01:06:10;;;;;;;3.13;1.10;;;;;;;9.76;100.00;98133.94;5044830;28;20497;-68
2023/04/01 01:08:49;;;;;;;1.93;1.10;;;;;;;9.64;100.00;98129.28;5039915;28;20449;-69
2023/04/01 01:11:23;;;;;;;1.63;1.07;;;;;;;9.87;100.00;98123.78;5040230;28;20496;-69
2023/04/01 01:13:54;;;;;;;4.23;1.50;;;;;;;9.86;100.00;98128.31;5037475;28;20524;-68
2023/04/01 01:16:26;;;;;;;1.77;1.10;;;;;;;9.79;100.00;98132.72;5043921;28;20519;-68
2023/04/01 01:18:55;;;;;;;3.10;0.87;;;;;;;9.87;100.00;98129.94;5052836;28;20477;-68
2023/04/01 01:21:56;;;;;;;1.37;0.97;;;;;;;9.94;100.00;98127.34;5042027;28;21007;-68
2023/04/01 01:24:38;;;;;;;1.53;0.80;;;;;;;9.79;100.00;98122.03;5040391;28;20470;-68
2023/04/01 01:27:07;;;;;;;1.50;1.10;;;;;;;9.90;100.00;98118.06;5040998;28;20453;-66
2023/04/01 01:30:15;;;;;;;2.90;1.07;;;;;;;9.89;100.00;98116.41;5033547;28;20522;-66
2023/04/01 01:33:07;;;;;;;2.00;1.30;;;;;;;9.97;100.00;98111.78;5037083;28;20478;-66
2023/04/01 01:35:38;;;;;;;2.10;1.23;;;;;;;9.90;100.00;98120.75;5040234;28;20494;-68
2023/04/01 01:38:07;;;;;;;1.07;0.97;;;;;;;9.84;100.00;98110.81;5044026;28;20541;-68
2023/04/01 01:40:35;;;;;;;2.40;0.80;;;;;;;9.76;100.00;98117.91;5040090;28;20482;-69
2023/04/01 01:43:06;;;;;;;2.40;1.00;;;;;;;9.58;100.00;98115.66;5041016;28;20510;-68
2023/04/01 01:45:34;;;;;;;2.50;0.70;;;;;;;9.69;100.00;98117.03;5040526;28;20965;-69
2023/04/01 01:48:03;;;;;;;5.20;1.10;;;;;;;9.66;100.00;98105.91;5048816;28;20457;-70
2023/04/01 01:50:30;;;;;;;1.20;0.57;;;;;;;9.73;100.00;98110.28;5040745;28;20473;-70
2023/04/01 01:53:06;;;;;;;1.43;0.83;;;;;;;9.70;100.00;98107.16;5040204;28;20480;-69
2023/04/01 01:55:34;;;;;;;1.37;0.67;;;;;;;9.80;100.00;98107.69;5047299;28;20529;-69
2023/04/01 01:58:05;;;;;;;1.63;0.97;;;;;;;9.94;100.00;98114.00;5040094;28;20450;-68
2023/04/01 02:00:32;;;;;;;1.80;0.83;;;;;;;9.97;100.00;98106.44;5039857;28;20457;-67
2023/04/01 02:02:59;;;;;;;2.73;0.87;;;;;;;9.81;100.00;98114.69;5041522;28;20557;-66
2023/04/01 02:05:28;;;;;;;4.40;0.70;;;;;;;9.96;100.00;98106.63;5041510;28;20543;-68
2023/04/01 02:08:01;;;;;;;1.00;0.50;;;;;;;9.68;100.00;98101.19;5037960;28;20468;-67
2023/04/01 02:10:32;;;;;;;3.03;0.93;;;;;;;9.46;100.00;98113.66;5042266;28;20526;-68
2023/04/01 02:13:03;;;;;;;1.50;0.90;;;;;;;9.58;100.00;98112.16;5044370;28;20556;-67
2023/04/01 02:15:32;;;;;;;1.63;0.90;;;;;;;9.51;100.00;98114.75;5041232;28;20517;-68
2023/04/01 02:17:59;;;;;;;2.77;0.57;;;;;;;9.36;100.00;98106.78;5043767;28;20454;-67
2023/04/01 02:20:28;;;;;;;2.80;0.70;;;;;;;9.49;100.00;98115.94;5041458;28;20493;-67
2023/04/01 02:22:56;;;;;;;1.07;0.50;;;;;;;9.47;100.00;98113.47;5050549;28;20448;-67
2023/04/01 02:25:26;;;;;;;1.90;0.60;;;;;;;9.60;100.00;98118.16;5043665;28;20482;-66
2023/04/01 02:27:56;;;;;;;2.10;0.70;;;;;;;9.49;100.00;98114.09;5037445;28;20453;-67
2023/04/01 02:30:22;;;;;;;0.70;0.60;;;;;;;9.55;100.00;98116.03;5045386;28;20454;-67
2023/04/01 02:32:49;;;;;;;1.87;0.67;;;;;;;9.51;100.00;98109.44;5043812;28;20513;-67
2023/04/01 02:35:17;;;;;;;0.97;0.57;;;;;;;9.42;100.00;98105.19;5045087;28;20485;-66
2023/04/01 02:37:46;;;;;;;1.40;0.80;;;;;;;9.31;100.00;98103.00;5046163;28;20446;-66
2023/04/01 02:40:15;;;;;;;2.17;1.07;;;;;;;9.48;100.00;98108.94;5034630;28;20458;-66
2023/04/01 02:42:41;;;;;;;1.27;0.87;;;;;;;9.61;100.00;98107.25;5046762;28;20490;-67
2023/04/01 02:45:11;;;;;;;2.33;0.80;;;;;;;9.52;100.00;98105.72;5047941;28;20548;-66
2023/04/01 02:47:38;;;;;;;1.57;0.60;;;;;;;9.50;100.00;98115.75;5043796;28;20553;-67
2023/04/01 02:50:05;;;;;;;2.43;0.80;;;;;;;9.49;100.00;98122.09;5043385;28;20473;-66
2023/04/01 02:52:33;;;;;;;1.13;0.60;;;;;;;9.61;100.00;98112.59;5048814;28;20540;-67
2023/04/01 02:55:01;;;;;;;2.10;0.73;;;;;;;9.33;100.00;98106.31;5042046;28;20462;-67
2023/04/01 02:57:28;;;;;;;1.47;0.60;;;;;;;9.40;100.00;98108.03;5043282;28;20478;-66
2023/04/01 02:59:55;;;;;;;3.70;0.90;;;;;;;9.51;100.00;98113.91;5047294;28;20460;-67
2023/04/01 03:02:23;;;;;;;2.00;0.60;;;;;;;9.75;100.00;98110.09;5046975;28;20446;-67
2023/04/01 03:04:50;;;;;;;4.00;0.73;;;;;;;9.56;100.00;98112.34;5039606;28;20477;-68
2023/04/01 03:07:16;;;;;;;3.80;0.80;;;;;;;9.42;100.00;98116.69;5041878;28;20490;-68
2023/04/01 03:09:43;;;;;;;0.70;0.50;;;;;;;9.51;100.00;98124.59;5042825;28;20469;-68
2023/04/01 03:12:09;;;;;;;1.50;1.00;;;;;;;9.63;100.00;98123.09;5046796;28;20482;-67
2023/04/01 03:14:36;;;;;;;1.00;0.67;;;;;;;9.47;100.00;98110.78;5046459;28;20576;-67
2023/04/01 03:17:03;;;;;;;0.60;0.50;;;;;;;9.54;100.00;98114.38;5044436;28;20513;-67
2023/04/01 03:19:31;;;;;;;3.50;0.60;;;;;;;9.50;100.00;98120.28;5046671;28;20454;-67
2023/04/01 03:21:57;;;;;;;3.00;0.60;;;;;;;9.76;100.00;98117.09;5041482;28;20487;-68
2023/04/01 03:24:24;;;;;;;1.67;0.63;;;;;;;9.41;100.00;98117.72;5042406;28;20489;-68
2023/04/01 03:26:51;;;;;;;0.60;0.43;;;;;;;9.45;100.00;98128.81;5043549;28;20449;-67
2023/04/01 03:29:17;;;;;;;0.80;0.70;;;;;;;9.53;100.00;98120.72;5044090;28;20482;-68
2023/04/01 03:31:44;;;;;;;1.13;0.60;;;;;;;9.50;100.00;98121.09;5041339;28;20497;-67
2023/04/01 03:34:11;;;;;;;1.07;0.53;;;;;;;9.77;100.00;98118.72;5042030;28;20450;-67
2023/04/01 03:36:39;;;;;;;1.83;0.83;;;;;;;9.83;100.00;98123.34;5043970;28;20568;-67
2023/04/01 03:39:05;;;;;;;1.23;0.50;;;;;;;9.72;100.00;98126.47;5045604;28;20477;-67
2023/04/01 03:41:33;;;;;;;0.80;0.60;;;;;;;9.81;100.00;98125.38;5042631;28;20477;-66
2023/04/01 03:44:07;;;;;;;0.97;0.40;;;;;;;9.53;100.00;98127.88;5047576;28;20454;-66
2023/04/01 03:46:34;;;;;;;0.93;0.60;;;;;;;9.46;100.00;98130.50;5043443;28;20450;-66
2023/04/01 03:49:00;;;;;;;1.00;0.60;;;;;;;9.48;100.00;98128.47;5042972;28;20442;-65
2023/04/01 03:51:27;;;;;;;2.30;0.50;;;;;;;9.58;100.00;98130.81;5042754;28;20521;-66
2023/04/01 03:53:55;;;;;;;1.47;0.60;;;;;;;9.63;100.00;98130.28;5045815;28;20483;-66
2023/04/01 03:56:22;;;;;;;2.20;0.57;;;;;;;9.52;100.00;98124.41;5043297;28;20513;-65
2023/04/01 03:58:48;;;;;;;3.33;0.70;;;;;;;9.69;100.00;98125.03;5042904;28;20529;-66
2023/04/01 04:01:17;;;;;;;1.23;0.87;;;;;;;9.54;100.00;98124.22;5045309;28;20516;-68
2023/04/01 04:03:46;;;;;;;1.07;0.50;;;;;;;9.58;100.00;98131.69;5042817;28;20485;-67
2023/04/01 04:06:14;;;;;;;1.80;0.50;;;;;;;9.49;100.00;98132.78;5043999;28;20454;-67
2023/04/01 04:08:40;;;;;;;2.30;0.70;;;;;;;9.43;100.00;98131.69;5041812;28;20488;-67
2023/04/01 04:11:09;;;;;;;2.60;0.70;;;;;;;9.55;100.00;98131.22;5042052;28;21263;-67
2023/04/01 04:13:35;;;;;;;1.07;0.50;;;;;;;9.41;100.00;98125.72;5041940;28;21090;-67
2023/04/01 04:16:02;;;;;;;1.90;0.90;;;;;;;9.46;100.00;98132.31;5042437;28;20566;-67
2023/04/01 04:18:29;;;;;;;2.03;0.50;;;;;;;9.41;100.00;98130.22;5050776;28;20454;-67
2023/04/01 04:20:56;;;;;;;1.57;0.57;;;;;;;9.37;100.00;98132.44;5041188;28;20473;-67
2023/04/01 04:23:22;;;;;;;1.47;0.70;;;;;;;9.40;100.00;98125.88;5045718;28;20457;-67
2023/04/01 04:25:56;;;;;;;2.30;0.67;;;;;;;9.31;100.00;98127.81;5041783;28;20552;-67
2023/04/01 04:28:25;;;;;;;0.90;0.57;;;;;;;9.28;100.00;98128.19;5041793;28;20505;-67
2023/04/01 04:30:52;;;;;;;2.70;0.70;;;;;;;9.33;100.00;98131.13;5044111;28;20492;-65
2023/04/01 04:33:18;;;;;;;1.13;0.50;;;;;;;9.37;100.00;98131.59;5041662;28;20481;-67
2023/04/01 04:35:45;;;;;;;1.70;0.40;;;;;;;9.19;100.00;98131.97;5043353;28;20517;-67
2023/04/01 04:38:12;;;;;;;1.03;0.70;;;;;;;9.28;100.00;98133.53;5042802;28;20430;-67
2023/04/01 04:40:38;;;;;;;0.63;0.50;;;;;;;9.28;100.00;98140.69;5043538;28;21148;-66
2023/04/01 04:43:05;;;;;;;0.80;0.57;;;;;;;9.50;100.00;98149.63;5042564;28;20453;-66
2023/04/01 04:45:34;;;;;;;0.93;0.70;;;;;;;9.37;100.00;98132.44;5040657;28;20447;-68
2023/04/01 04:48:00;;;;;;;0.90;0.40;;;;;;;9.18;100.00;98132.97;5048574;28;20507;-68
2023/04/01 04:50:27;;;;;;;1.37;0.53;;;;;;;9.07;100.00;98134.25;5040735;28;20454;-68
2023/04/01 04:52:54;;;;;;;2.00;1.03;;;;;;;9.07;100.00;98152.09;5039876;28;21031;-68
2023/04/01 04:55:21;;;;;;;0.50;0.50;;;;;;;9.00;100.00;98141.34;5045195;28;20469;-68
2023/04/01 04:57:48;;;;;;;1.47;0.40;;;;;;;9.10;100.00;98149.91;5040647;28;20533;-68
2023/04/01 05:00:15;;;;;;;1.10;0.67;;;;;;;9.08;100.00;98145.75;5040023;28;21085;-68
2023/04/01 05:02:43;;;;;;;2.27;0.67;;;;;;;9.07;100.00;98150.25;5045636;28;21057;-66
2023/04/01 05:05:10;;;;;;;0.80;0.70;;;;;;;9.07;100.00;98155.59;5047210;28;20489;-67
2023/04/01 05:07:36;;;;;;;1.30;0.90;;;;;;;9.00;100.00;98152.81;5043015;28;20465;-66
2023/04/01 05:10:03;;;;;;;0.90;0.60;;;;;;;9.04;100.00;98154.13;5042943;28;20524;-68
2023/04/01 05:12:32;;;;;;;3.00;0.90;;;;;;;9.07;100.00;98157.44;5042600;28;20515;-68
2023/04/01 05:14:58;;;;;;;2.23;0.70;;;;;;;8.99;100.00;98163.66;5041322;28;20466;-68
2023/04/01 05:17:25;;;;;;;0.97;0.80;;;;;;;8.99;100.00;98158.31;5040377;28;20506;-67
2023/04/01 05:19:53;;;;;;;1.10;0.80;;;;;;;9.00;100.00;98155.47;5041391;28;20454;-68
2023/04/01 05:22:20;;;;;;;1.00;0.60;;;;;;;9.13;100.00;98159.34;5040491;28;20486;-68
2023/04/01 05:24:46;;;;;;;1.47;1.00;;;;;;;8.89;100.00;98158.59;5039529;28;20458;-69
2023/04/01 05:27:13;;;;;;;2.73;1.30;;;;;;;8.98;100.00;98159.34;5040581;28;20473;-67
2023/04/01 05:29:40;;;;;;;1.63;1.00;;;;;;;8.93;100.00;98164.41;5038392;28;20473;-67
2023/04/01 05:32:07;;;;;;;1.20;0.80;;;;;;;9.11;100.00;98164.03;5040969;28;20541;-68
2023/04/01 05:34:34;;;;;;;1.20;1.10;;;;;;;9.04;100.00;98167.44;5034324;28;20486;-69
2023/04/01 05:37:02;;;;;;;1.00;0.80;;;;;;;8.93;100.00;98164.41;5044440;28;21186;-69
2023/04/01 05:39:28;;;;;;;1.50;0.93;;;;;;;8.98;100.00;98170.84;5043685;28;20485;-69
2023/04/01 05:41:55;;;;;;;0.67;0.67;;;;;;;8.77;100.00;98173.38;5039356;28;20461;-70
2023/04/01 05:44:22;;;;;;;1.03;0.90;;;;;;;8.81;100.00;98164.00;5040911;28;20456;-68
2023/04/01 05:46:48;;;;;;;1.60;0.80;;;;;;;8.91;100.00;98167.25;5041208;28;20446;-67
2023/04/01 05:49:15;;;;;;;1.63;0.90;;;;;;;9.00;100.00;98160.00;5040947;28;21109;-67
2023/04/01 05:51:42;;;;;;;0.90;0.90;;;;;;;8.95;100.00;98171.19;5042314;28;20484;-68
2023/04/01 05:54:10;;;;;;;0.70;0.70;;;;;;;9.02;100.00;98165.97;5039506;28;20481;-69
2023/04/01 05:56:36;;;;;;;5.50;0.70;;;;;;;8.81;100.00;98156.00;5038839;28;20594;-67
2023/04/01 05:59:03;;;;;;;1.17;0.63;;;;;;;8.96;100.00;98167.53;5041573;28;20497;-67
2023/04/01 06:01:30;;;;;;;2.00;1.07;;;;;;;9.06;100.00;98180.56;5045025;28;20464;-67
2023/04/01 06:03:56;;;;;;;0.90;0.60;;;;;;;8.78;100.00;98177.69;5046823;28;20465;-68
2023/04/01 06:06:25;;;;;;;1.33;0.70;;;;;;;8.80;100.00;98173.84;5046620;28;20478;-67
2023/04/01 06:08:53;;;;;;;0.70;0.70;;;;;;;9.08;100.00;98175.06;5044609;28;20449;-68
2023/04/01 06:11:27;;;;;;;1.50;0.70;;;;;;;8.89;100.00;98179.06;5044605;28;20516;-68
2023/04/01 06:14:07;;;;;;;0.60;0.60;;;;;;;8.93;100.00;98177.72;5044756;28;20497;-68
2023/04/01 06:16:44;;;;;;;0.90;0.53;;;;;;;9.02;100.00;98189.94;5048182;28;20473;-68
2023/04/01 06:19:22;;;;;;;0.50;0.50;;;;;;;9.14;100.00;98188.50;5042700;28;20511;-69
2023/04/01 06:22:02;;;;;;;1.60;0.73;;;;;;;9.00;100.00;98191.97;5044038;28;20457;-68
2023/04/01 06:24:40;;;;;;;1.63;0.60;;;;;;;9.32;100.00;98204.16;5043959;28;20954;-68
2023/04/01 06:27:16;;;;;;;0.60;0.40;;;;;;;9.32;100.00;98201.50;5046043;28;20485;-67
2023/04/01 06:29:50;;;;;;;0.80;0.77;;;;;;;9.72;100.00;98198.53;5043960;28;20457;-72
2023/04/01 06:32:32;;;;;;;1.80;0.60;;;;;;;9.66;100.00;98205.44;5038217;28;20795;-65
2023/04/01 06:35:15;;;;;;;1.57;0.90;;;;;;;9.70;100.00;98204.03;5038715;28;20482;-65
2023/04/01 06:37:53;;;;;;;1.10;1.10;;;;;;;9.74;100.00;98205.34;5044694;28;20528;-64
2023/04/01 06:40:33;;;;;;;0.60;0.60;;;;;;;9.90;100.00;98206.97;5046047;28;20484;-64
2023/04/01 06:43:10;;;;;;;0.87;0.70;;;;;;;10.18;100.00;98203.59;5039758;28;20519;-64
2023/04/01 06:45:42;;;;;;;0.57;0.57;;;;;;;10.10;100.00;98212.56;5052888;28;20458;-64
2023/04/01 06:48:35;;;;;;;0.60;0.60;;;;;;;10.37;100.00;98212.88;5041971;28;20446;-64
2023/04/01 06:51:08;;;;;;;3.57;2.00;;;;;;;10.20;100.00;98216.75;5044183;28;20488;-65
2023/04/01 06:53:41;;;;;;;3.33;1.60;;;;;;;9.86;100.00;98215.53;5043169;28;20457;-65
2023/04/01 06:56:10;;;;;;;1.50;1.00;;;;;;;9.78;100.00;98203.13;5042980;28;20453;-65
2023/04/01 06:58:40;;;;;;;2.10;1.37;;;;;;;9.95;100.00;98223.25;5043171;28;20442;-65
2023/04/01 07:01:09;;;;;;;1.73;1.30;;;;;;;9.75;100.00;98216.84;5042419;28;20504;-65
2023/04/01 07:03:39;;;;;;;1.97;1.27;;;;;;;9.61;100.00;98224.66;5049862;28;21056;-65
2023/04/01 07:06:11;;;;;;;2.60;1.43;;;;;;;9.85;100.00;98227.25;5044398;28;20887;-65
2023/04/01 07:08:40;;;;;;;2.93;1.73;;;;;;;9.60;100.00;98233.69;5041537;28;20445;-65
2023/04/01 07:11:10;;;;;;;4.40;1.70;;;;;;;9.36;100.00;98223.28;5033813;28;20454;-65
2023/04/01 07:13:43;;;;;;;1.00;0.90;;;;;;;9.50;100.00;98227.78;5043444;28;21123;-65
2023/04/01 07:16:14;;;;;;;1.73;1.27;;;;;;;9.48;100.00;98235.16;5046472;28;21074;-66
2023/04/01 07:18:44;;;;;;;3.13;1.23;;;;;;;9.50;100.00;98241.13;5043444;28;20458;-67
2023/04/01 07:21:25;;;;;;;2.43;1.37;;;;;;;9.49;100.00;98247.47;5042685;28;20526;-70
2023/04/01 07:23:53;;;;;;;1.87;1.23;;;;;;;9.29;100.00;98241.84;5042896;28;20507;-71
2023/04/01 07:26:21;;;;;;;1.63;1.53;;;;;;;9.46;100.00;98247.84;5035938;28;20499;-70
2023/04/01 07:28:52;;;;;;;1.50;1.40;;;;;;;9.51;100.00;98248.13;5039682;28;20469;-70
2023/04/01 07:31:27;;;;;;;2.30;1.60;;;;;;;9.48;100.00;98250.31;5048101;28;20465;-70
2023/04/01 07:34:00;;;;;;;2.70;2.23;;;;;;;9.22;100.00;98244.41;5042795;28;20450;-70
2023/04/01 07:36:31;;;;;;;2.00;1.90;;;;;;;9.27;100.00;98246.53;5037564;28;20517;-68
2023/04/01 07:39:05;;;;;;;2.97;2.07;;;;;;;9.19;100.00;98244.75;5042668;28;20446;-70
2023/04/01 07:41:38;;;;;;;2.13;1.97;;;;;;;9.34;100.00;98254.63;5043163;28;20488;-68
2023/04/01 07:44:14;;;;;;;1.90;1.63;;;;;;;9.46;100.00;98253.19;5035960;28;20951;-70
2023/04/01 07:46:51;;;;;;;1.70;1.57;;;;;;;9.48;100.00;98253.81;5041597;28;20890;-70
2023/04/01 07:49:23;;;;;;;2.03;1.83;;;;;;;9.55;100.00;98264.59;5033336;28;20476;-70
2023/04/01 07:51:58;;;;;;;1.97;1.77;;;;;;;9.89;100.00;98264.03;5041887;28;20485;-69
2023/04/01 07:54:30;;;;;;;1.70;1.60;;;;;;;9.72;100.00;98251.88;5041927;28;20456;-70
2023/04/01 07:57:00;;;;;;;1.73;1.63;;;;;;;9.94;100.00;98260.81;5041919;28;20505;-70
2023/04/01 07:59:32;;;;;;;1.77;1.60;;;;;;;10.04;100.00;98268.53;5044539;28;21117;-69
2023/04/01 08:02:06;;;;;;;1.70;1.60;;;;;;;10.25;100.00;98270.44;5038551;28;20466;-69
2023/04/01 08:04:42;;;;;;;1.97;1.77;;;;;;;10.15;100.00;98282.22;5042390;28;20967;-69
2023/04/01 08:07:12;;;;;;;2.30;1.67;;;;;;;9.90;100.00;98279.03;5037691;28;20477;-69
2023/04/01 08:09:45;;;;;;;1.90;1.60;;;;;;;10.35;100.00;98289.72;5052308;28;20493;-70
2023/04/01 08:12:22;;;;;;;2.20;2.00;;;;;;;10.12;100.00;98289.78;5041577;28;20466;-68
2023/04/01 08:15:00;;;;;;;1.67;1.57;;;;;;;10.22;100.00;98293.00;5036172;28;20465;-67
2023/04/01 08:17:31;;;;;;;1.77;1.67;;;;;;;10.23;100.00;98291.19;5042377;28;21089;-69
2023/04/01 08:20:08;;;;;;;6.83;2.60;;;;;;;10.40;100.00;98286.44;5044725;28;20487;-69
2023/04/01 08:22:39;;;;;;;2.20;2.00;;;;;;;10.48;100.00;98297.03;5040769;28;20465;-68
2023/04/01 08:25:07;;;;;;;4.27;2.00;;;;;;;10.49;100.00;98306.72;5040072;28;20534;-69
2023/04/01 08:27:38;;;;;;;2.33;1.90;;;;;;;10.48;100.00;98302.38;5042127;28;20455;-69
2023/04/01 08:30:16;;;;;;;2.07;1.90;;;;;;;10.52;100.00;98304.50;5040777;28;20472;-69
2023/04/01 08:32:45;;;;;;;1.87;1.73;;;;;;;10.79;100.00;98309.31;5029216;28;20471;-69
2023/04/01 08:35:18;;;;;;;2.03;1.83;;;;;;;11.08;100.00;98305.69;5048433;28;20473;-68
2023/04/01 08:37:45;;;;;;;4.30;2.40;;;;;;;11.33;100.00;98308.78;5046846;28;20523;-69
2023/04/01 08:40:29;;;;;;;2.20;1.67;;;;;;;11.42;100.00;98306.78;5040288;28;20901;-69
2023/04/01 08:43:06;;;;;;;2.10;1.57;;;;;;;10.99;100.00;98304.97;5040294;28;20450;-69
2023/04/01 08:46:05;;;;;;;1.60;1.50;;;;;;;11.38;100.00;98306.34;5041052;28;20482;-70
2023/04/01 08:48:57;;;;;;;2.53;1.87;;;;;;;11.80;100.00;98309.09;5036420;28;20504;-70
2023/04/01 08:52:00;;;;;;;4.17;1.80;;;;;;;11.96;100.00;98314.19;5038507;28;20530;-69
2023/04/01 08:54:49;;;;;;;2.10;1.83;;;;;;;12.42;100.00;98313.59;5029079;28;21044;-69
2023/04/01 08:57:22;;;;;;;1.83;1.73;;;;;;;11.80;100.00;98312.59;5042054;28;20481;-69
2023/04/01 09:00:00;;;;;;;1.30;1.20;;;;;;;11.79;100.00;98307.47;5040383;28;20520;-69
2023/04/01 09:02:55;;;;;;;2.40;2.20;;;;;;;12.09;100.00;98316.13;5043248;28;20456;-69
2023/04/01 09:05:58;;;;;;;1.90;1.80;;;;;;;12.93;100.00;98315.00;5040692;28;20464;-68
2023/04/01 09:08:34;;;;;;;2.17;1.60;;;;;;;13.04;100.00;98326.13;5032112;28;20469;-69
2023/04/01 09:11:22;;;;;;;1.30;1.20;;;;;;;12.64;100.00;98324.19;5035744;28;20473;-70
2023/04/01 09:14:10;;;;;;;2.13;0.90;;;;;;;12.62;100.00;98331.63;5039875;28;20572;-69
2023/04/01 09:16:52;;;;;;;1.60;1.30;;;;;;;12.68;100.00;98332.66;5039324;28;20488;-70
2023/04/01 09:19:25;;;;;;;1.30;1.20;;;;;;;13.00;100.00;98323.88;5031809;28;20453;-68
2023/04/01 09:22:21;;;;;;;1.50;1.20;;;;;;;12.47;100.00;98328.25;5044078;28;20873;-69
2023/04/01 09:25:07;;;;;;;1.40;1.30;;;;;;;11.96;100.00;98338.31;5035367;28;20521;-69
2023/04/01 09:27:38;;;;;;;2.17;1.50;;;;;;;12.26;100.00;98339.91;5043829;28;20471;-69
2023/04/01 09:30:50;;;;;;;1.30;1.20;;;;;;;12.56;100.00;98335.09;5036325;28;20458;-69
2023/04/01 09:33:47;;;;;;;3.93;1.23;;;;;;;12.30;100.00;98341.16;5039623;28;20476;-69
2023/04/01 09:36:22;;;;;;;2.90;1.67;;;;;;;12.67;100.00;98337.16;5045411;28;20449;-71
2023/04/01 09:38:57;;;;;;;1.77;1.40;;;;;;;13.19;100.00;98342.88;5047242;28;20504;-69
2023/04/01 09:41:30;;;;;;;1.60;1.50;;;;;;;13.43;100.00;98341.47;5037892;28;20480;-68
2023/04/01 09:44:03;;;;;;;1.53;1.43;;;;;;;13.45;100.00;98349.31;5038498;28;20553;-69
2023/04/01 09:46:44;;;;;;;2.80;1.87;;;;;;;13.80;100.00;98351.78;5034781;28;20472;-70
2023/04/01 09:49:26;;;;;;;1.40;1.30;;;;;;;13.13;100.00;98360.63;5042473;28;20954;-70
2023/04/01 09:52:02;;;;;;;1.67;1.27;;;;;;;13.48;100.00;98357.78;5031900;28;20465;-70
2023/04/01 09:54:44;;;;;;;1.43;1.33;;;;;;;13.58;100.00;98361.94;5040010;28;20874;-70
2023/04/01 09:57:39;;;;;;;2.40;1.87;;;;;;;13.24;100.00;98361.06;5037732;28;20532;-70
2023/04/01 10:00:21;;;;;;;1.40;1.30;;;;;;;13.32;100.00;98358.22;5029480;28;20970;-70
2023/04/01 10:03:46;;;;;;;1.20;1.07;;;;;;;12.56;100.00;98362.72;5034337;28;20553;-70
2023/04/01 10:06:54;;;;;;;1.40;1.30;;;;;;;11.93;100.00;98370.81;5036211;28;20465;-70
2023/04/01 10:09:56;;;;;;;1.33;1.10;;;;;;;11.90;100.00;98373.03;5038614;28;20467;-69
2023/04/01 10:13:01;;;;;;;1.23;1.13;;;;;;;11.98;100.00;98378.28;5034324;28;20519;-69
2023/04/01 10:15:47;;;;;;;1.80;1.37;;;;;;;11.93;100.00;98380.72;5034861;28;20453;-69
2023/04/01 10:18:37;;;;;;;1.60;1.50;;;;;;;11.79;100.00;98380.56;5040772;28;20580;-71
2023/04/01 10:21:26;;;;;;;2.37;1.60;;;;;;;11.22;100.00;98381.53;5038746;28;20478;-70
2023/04/01 10:24:26;;;;;;;1.27;1.17;;;;;;;11.57;100.00;98384.31;5033934;28;20456;-70
2023/04/01 10:27:12;;;;;;;1.53;1.43;;;;;;;11.13;100.00;98388.84;5022782;28;20500;-70
2023/04/01 10:30:19;;;;;;;1.83;1.73;;;;;;;11.47;100.00;98392.66;5041820;28;20458;-70
2023/04/01 10:33:15;;;;;;;1.67;1.57;;;;;;;12.58;100.00;98386.63;4977144;28;20531;-71
2023/04/01 10:36:14;;;;;;;1.50;1.40;;;;;;;13.33;100.00;98386.69;5036415;28;20465;-70
2023/04/01 10:39:11;;;;;;;1.43;1.27;;;;;;;14.18;100.00;98391.44;5035454;28;20481;-69
2023/04/01 10:42:25;;;;;;;1.90;1.70;;;;;;;14.17;100.00;98387.94;5038575;28;20456;-70
2023/04/01 10:45:11;;;;;;;1.23;1.13;;;;;;;15.53;100.00;98385.25;5047765;28;20659;-69
2023/04/01 10:48:10;;;;;;;2.70;1.50;;;;;;;14.18;100.00;98383.38;5043328;28;20453;-67
2023/04/01 10:51:15;;;;;;;1.80;1.70;;;;;;;13.47;100.00;98392.91;5036591;28;20473;-69
2023/04/01 10:53:49;;;;;;;1.37;1.27;;;;;;;13.73;100.00;98386.72;4977492;28;20471;-70
2023/04/01 10:56:40;;;;;;;1.47;1.37;;;;;;;13.55;100.00;98390.03;5024006;28;20517;-68
2023/04/01 10:59:28;;;;;;;1.90;1.50;;;;;;;12.95;100.00;98389.88;5052434;28;20472;-69
2023/04/01 11:02:37;;;;;;;1.50;1.23;;;;;;;12.53;100.00;98391.78;5044323;28;20507;-69
2023/04/01 11:05:31;;;;;;;2.03;1.93;;;;;;;12.46;100.00;98393.59;4965925;28;20509;-69
2023/04/01 11:08:35;;;;;;;1.23;1.13;;;;;;;12.72;100.00;98399.06;4973329;28;20489;-69
2023/04/01 11:11:39;;;;;;;1.43;1.33;;;;;;;12.68;100.00;98394.31;4979329;28;20463;-69
2023/04/01 11:14:28;;;;;;;3.03;1.47;;;;;;;12.19;100.00;98391.59;4964258;28;21100;-69
2023/04/01 11:17:18;;;;;;;1.20;1.10;;;;;;;12.62;100.00;98401.31;4968461;28;20463;-69
2023/04/01 11:20:20;;;;;;;2.10;1.80;;;;;;;12.66;100.00;98410.59;4972060;28;21068;-68
2023/04/01 11:23:02;;;;;;;1.83;1.73;;;;;;;13.56;100.00;98405.94;4937093;28;20552;-69
2023/04/01 11:25:49;;;;;;;2.23;1.67;;;;;;;14.25;100.00;98416.44;4976704;28;20472;-69
2023/04/01 11:28:44;;;;;;;2.10;1.90;;;;;;;13.88;100.00;98416.06;4979286;28;20468;-70
2023/04/01 11:31:38;;;;;;;4.70;1.50;;;;;;;14.20;100.00;98414.38;4965054;28;20601;-69
2023/04/01 11:34:14;;;;;;;1.63;1.53;;;;;;;14.34;100.00;98414.34;4969950;28;20484;-69
2023/04/01 11:36:49;;;;;;;2.90;1.80;;;;;;;14.15;100.00;98427.63;5026566;28;20804;-69
2023/04/01 11:39:23;;;;;;;2.10;2.00;;;;;;;13.55;100.00;98419.56;5040841;28;20484;-68
2023/04/01 11:41:54;;;;;;;1.93;1.83;;;;;;;13.44;100.00;98415.63;5040199;28;20458;-68
2023/04/01 11:44:22;;;;;;;2.07;1.93;;;;;;;13.14;100.00;98421.31;5041162;28;20453;-66
2023/04/01 11:47:14;;;;;;;1.73;1.63;;;;;;;13.46;100.00;98428.84;5040940;28;20483;-67
2023/04/01 11:49:48;;;;;;;2.33;2.13;;;;;;;13.50;100.00;98438.94;5040770;28;20457;-67
2023/04/01 11:52:23;;;;;;;3.53;2.13;;;;;;;13.19;100.00;98429.59;5043585;28;20569;-67
2023/04/01 11:55:02;;;;;;;2.60;1.97;;;;;;;13.02;100.00;98438.19;5041778;28;21004;-67
2023/04/01 11:57:51;;;;;;;2.50;2.30;;;;;;;13.29;100.00;98437.22;5041777;28;20437;-66
2023/04/01 12:00:49;;;;;;;2.70;1.77;;;;;;;13.39;100.00;98444.13;5041128;28;20545;-68
2023/04/01 12:03:31;;;;;;;2.70;2.20;;;;;;;13.10;100.00;98432.63;5041554;28;20458;-67
2023/04/01 12:06:03;;;;;;;2.60;2.40;;;;;;;13.44;100.00;98447.84;5035043;28;20453;-67